createdAt,value
2022-10-23T00:00:38.928Z,13.48
2022-10-23T00:04:51.625Z,13.46
2022-10-23T00:09:06.404Z,13.41
2022-10-23T00:13:17.899Z,13.38
2022-10-23T00:17:32.593Z,13.32
2022-10-23T00:21:44.239Z,13.21
2022-10-23T00:25:55.747Z,13.29
2022-10-23T00:30:07.674Z,13.24
2022-10-23T00:34:19.846Z,13.21
2022-10-23T00:38:31.513Z,13.29
2022-10-23T00:42:43.299Z,13.26
2022-10-23T00:46:55.735Z,13.32
2022-10-23T00:51:07.338Z,13.31
2022-10-23T00:55:21.263Z,13.30
2022-10-23T00:59:33.600Z,13.27
2022-10-23T01:03:45.884Z,13.27
2022-10-23T01:08:07.811Z,13.27
2022-10-23T01:12:37.857Z,13.29
2022-10-23T01:17:27.529Z,13.28
2022-10-23T01:22:04.050Z,13.31
2022-10-23T01:26:37.390Z,13.37
2022-10-23T01:30:49.587Z,13.39
2022-10-23T01:35:11.550Z,13.38
2022-10-23T01:39:36.033Z,13.35
2022-10-23T01:44:01.157Z,13.31
2022-10-23T01:48:22.012Z,13.30
2022-10-23T01:52:34.207Z,13.24
2022-10-23T01:56:50.665Z,13.28
2022-10-23T02:01:07.650Z,13.29
2022-10-23T02:05:31.689Z,13.27
2022-10-23T02:09:43.869Z,13.29
2022-10-23T02:14:18.509Z,13.27
2022-10-23T02:18:36.481Z,13.23
2022-10-23T02:23:11.008Z,13.23
2022-10-23T02:27:35.168Z,13.18
2022-10-23T02:31:46.797Z,13.11
2022-10-23T02:35:58.369Z,13.02
2022-10-23T02:40:11.193Z,12.97
2022-10-23T02:45:04.196Z,12.93
2022-10-23T02:49:24.464Z,12.94
2022-10-23T02:54:15.584Z,12.90
2022-10-23T02:58:34.475Z,12.93
2022-10-23T03:03:06.725Z,12.93
2022-10-23T03:07:19.748Z,12.91
2022-10-23T03:11:31.347Z,12.87
2022-10-23T03:15:43.891Z,12.94
2022-10-23T03:19:58.548Z,12.92
2022-10-23T03:24:10.231Z,12.87
2022-10-23T03:28:27.673Z,12.88
2022-10-23T03:32:39.453Z,12.88
2022-10-23T03:36:51.145Z,12.86
2022-10-23T03:41:05.006Z,12.82
2022-10-23T03:45:17.109Z,12.86
2022-10-23T03:49:28.713Z,12.85
2022-10-23T03:53:46.418Z,12.89
2022-10-23T03:57:58.086Z,12.90
2022-10-23T04:02:10.467Z,12.86
2022-10-23T04:06:22.079Z,12.86
2022-10-23T04:10:34.174Z,12.88
2022-10-23T04:14:45.799Z,12.90
2022-10-23T04:18:57.619Z,12.88
2022-10-23T04:23:09.242Z,12.95
2022-10-23T04:27:20.877Z,12.93
2022-10-23T04:31:32.886Z,12.94
2022-10-23T04:35:44.583Z,12.94
2022-10-23T04:39:56.476Z,12.99
2022-10-23T04:44:08.285Z,12.97
2022-10-23T04:48:25.580Z,12.93
2022-10-23T04:53:03.071Z,12.94
2022-10-23T04:57:33.678Z,13.00
2022-10-23T05:01:54.253Z,13.00
2022-10-23T05:06:09.321Z,13.02
2022-10-23T05:10:56.430Z,13.10
2022-10-23T05:15:08.354Z,13.12
2022-10-23T05:19:27.868Z,13.10
2022-10-23T05:23:42.011Z,13.15
2022-10-23T05:27:53.871Z,13.15
2022-10-23T05:32:10.198Z,13.14
2022-10-23T05:36:24.926Z,13.16
2022-10-23T05:40:41.124Z,13.22
2022-10-23T05:44:58.489Z,13.24
2022-10-23T05:49:45.363Z,13.38
2022-10-23T05:54:09.391Z,13.44
2022-10-23T05:58:26.277Z,13.49
2022-10-23T06:02:46.981Z,13.51
2022-10-23T06:07:13.355Z,13.50
2022-10-23T06:11:28.413Z,13.52
2022-10-23T06:15:44.699Z,13.54
2022-10-23T06:20:02.603Z,13.57
2022-10-23T06:24:18.605Z,13.59
2022-10-23T06:28:35.234Z,13.62
2022-10-23T06:32:46.886Z,13.57
2022-10-23T06:36:59.891Z,13.59
2022-10-23T06:41:20.047Z,13.57
2022-10-23T06:45:37.320Z,13.64
2022-10-23T06:49:58.067Z,13.64
2022-10-23T06:54:10.810Z,13.75
2022-10-23T06:58:36.081Z,13.76
2022-10-23T07:02:56.161Z,13.82
2022-10-23T07:07:07.809Z,13.83
2022-10-23T07:11:28.313Z,13.87
2022-10-23T07:15:41.886Z,13.89
2022-10-23T07:19:59.068Z,13.92
2022-10-23T07:24:10.662Z,13.94
2022-10-23T07:28:24.709Z,14.01
2022-10-23T07:32:37.101Z,14.10
2022-10-23T07:37:07.637Z,14.14
2022-10-23T07:41:20.167Z,14.22
2022-10-23T07:45:31.836Z,14.25
2022-10-23T07:49:49.490Z,14.32
2022-10-23T07:54:01.318Z,14.37
2022-10-23T07:58:32.830Z,14.43
2022-10-23T08:02:51.107Z,14.49
2022-10-23T08:07:02.795Z,14.51
2022-10-23T08:11:27.129Z,14.55
2022-10-23T08:15:41.354Z,14.59
2022-10-23T08:20:06.998Z,14.62
2022-10-23T08:24:24.529Z,14.61
2022-10-23T08:28:37.006Z,14.67
2022-10-23T08:32:49.089Z,14.72
2022-10-23T08:37:00.663Z,14.79
2022-10-23T08:41:39.383Z,14.89
2022-10-23T08:46:04.194Z,14.98
2022-10-23T08:50:42.792Z,15.11
2022-10-23T08:55:23.402Z,15.20
2022-10-23T08:59:48.192Z,15.32
2022-10-23T09:04:00.546Z,15.42
2022-10-23T09:08:36.909Z,15.52
2022-10-23T09:12:49.175Z,15.67
2022-10-23T09:17:03.717Z,15.75
2022-10-23T09:21:15.930Z,15.78
2022-10-23T09:25:31.154Z,15.81
2022-10-23T09:29:52.782Z,15.78
2022-10-23T09:34:06.433Z,15.76
2022-10-23T09:38:28.639Z,15.77
2022-10-23T09:42:51.564Z,15.81
2022-10-23T09:47:06.065Z,15.84
2022-10-23T09:51:51.381Z,15.86
2022-10-23T09:56:07.938Z,15.90
2022-10-23T10:00:26.060Z,15.97
2022-10-23T10:04:40.622Z,16.05
2022-10-23T10:08:56.493Z,16.09
2022-10-23T10:13:34.259Z,16.17
2022-10-23T10:17:54.885Z,16.29
2022-10-23T10:22:27.848Z,16.38
2022-10-23T10:27:03.587Z,16.49
2022-10-23T10:31:41.433Z,16.63
2022-10-23T10:36:03.396Z,16.66
2022-10-23T10:40:33.154Z,16.74
2022-10-23T10:44:50.834Z,16.73
2022-10-23T10:49:31.668Z,16.77
2022-10-23T10:54:29.476Z,16.76
2022-10-23T10:58:51.570Z,16.82
2022-10-23T11:03:21.309Z,16.92
2022-10-23T11:07:38.126Z,17.00
2022-10-23T11:11:49.877Z,17.00
2022-10-23T11:16:10.114Z,17.08
2022-10-23T11:20:38.879Z,17.15
2022-10-23T11:25:23.262Z,17.23
2022-10-23T11:30:02.868Z,17.34
2022-10-23T11:34:42.062Z,17.53
2022-10-23T11:38:59.043Z,17.64
2022-10-23T11:43:10.569Z,17.75
2022-10-23T11:47:40.756Z,17.88
2022-10-23T11:52:05.863Z,17.92
2022-10-23T11:56:19.436Z,18.01
2022-10-23T12:00:38.676Z,18.06
2022-10-23T12:04:53.156Z,18.13
2022-10-23T12:09:09.111Z,18.29
2022-10-23T12:13:49.673Z,18.40
2022-10-23T12:18:27.718Z,18.64
2022-10-23T12:23:00.416Z,18.78
2022-10-23T12:27:19.953Z,18.98
2022-10-23T12:31:59.554Z,19.05
2022-10-23T12:36:41.771Z,19.08
2022-10-23T12:41:18.117Z,19.09
2022-10-23T12:45:38.598Z,19.04
2022-10-23T12:49:50.976Z,19.04
2022-10-23T12:54:04.963Z,19.05
2022-10-23T12:58:26.731Z,19.07
2022-10-23T13:02:41.602Z,19.07
2022-10-23T13:06:55.793Z,19.09
2022-10-23T13:11:14.395Z,19.12
2022-10-23T13:15:40.985Z,19.11
2022-10-23T13:19:52.461Z,19.09
2022-10-23T13:24:04.223Z,19.15
2022-10-23T13:28:25.309Z,19.11
2022-10-23T13:32:36.841Z,19.09
2022-10-23T13:37:25.113Z,19.15
2022-10-23T13:41:41.475Z,19.16
2022-10-23T13:45:52.991Z,19.10
2022-10-23T13:50:07.613Z,19.12
2022-10-23T13:54:29.368Z,19.19
2022-10-23T13:58:42.020Z,19.18
2022-10-23T14:07:09.957Z,19.20
2022-10-23T14:11:22.176Z,19.19
2022-10-23T14:15:33.661Z,19.23
2022-10-23T14:19:45.707Z,19.24
2022-10-23T14:23:57.368Z,19.21
2022-10-23T14:28:08.913Z,19.20
2022-10-23T14:32:20.439Z,19.20
2022-10-23T14:36:38.882Z,19.17
2022-10-23T14:41:02.164Z,19.15
2022-10-23T14:45:13.699Z,19.08
2022-10-23T14:49:25.318Z,19.11
2022-10-23T14:53:36.928Z,19.00
2022-10-23T14:57:48.757Z,19.05
2022-10-23T15:02:00.395Z,18.92
2022-10-23T15:06:16.055Z,18.93
2022-10-23T15:10:29.926Z,18.87
2022-10-23T15:14:41.459Z,18.75
2022-10-23T15:18:53.085Z,18.69
2022-10-23T15:23:04.774Z,18.63
2022-10-23T15:27:16.384Z,18.61
2022-10-23T15:31:43.121Z,18.63
2022-10-23T15:35:55.955Z,18.55
2022-10-23T15:40:08.097Z,18.58
2022-10-23T15:44:21.909Z,18.49
2022-10-23T15:48:33.499Z,18.41
2022-10-23T15:52:45.459Z,18.34
2022-10-23T15:56:57.664Z,18.25
2022-10-23T16:01:09.514Z,18.22
2022-10-23T16:05:21.261Z,18.09
2022-10-23T16:09:32.855Z,18.08
2022-10-23T16:13:44.876Z,18.04
2022-10-23T16:17:56.502Z,17.97
2022-10-23T16:22:08.379Z,17.95
2022-10-23T16:26:21.027Z,17.96
2022-10-23T16:30:32.622Z,17.85
2022-10-23T16:34:44.505Z,17.85
2022-10-23T16:38:56.454Z,17.86
2022-10-23T16:43:28.433Z,17.87
2022-10-23T16:47:53.538Z,17.84
2022-10-23T16:52:05.161Z,17.78
2022-10-23T16:56:19.334Z,17.71
2022-10-23T17:00:35.014Z,17.53
2022-10-23T17:04:46.822Z,17.63
2022-10-23T17:09:00.560Z,17.61
2022-10-23T17:13:12.167Z,17.77
2022-10-23T17:17:23.748Z,17.79
2022-10-23T17:21:38.264Z,17.81
2022-10-23T17:25:49.837Z,17.76
2022-10-23T17:30:01.608Z,17.71
2022-10-23T17:34:17.237Z,17.69
2022-10-23T17:38:28.913Z,17.74
2022-10-23T17:42:40.579Z,17.66
2022-10-23T17:46:53.788Z,17.69
2022-10-23T17:51:07.704Z,17.59
2022-10-23T17:55:19.220Z,17.65
2022-10-23T17:59:30.858Z,17.67
2022-10-23T18:03:42.448Z,17.63
2022-10-23T18:07:54.045Z,17.76
2022-10-23T18:12:05.671Z,17.73
2022-10-23T18:16:17.607Z,17.76
2022-10-23T18:20:29.168Z,17.78
2022-10-23T18:24:40.705Z,17.78
2022-10-23T18:28:56.842Z,17.76
2022-10-23T18:33:08.492Z,17.75
2022-10-23T18:37:20.041Z,17.66
2022-10-23T18:41:36.800Z,17.63
2022-10-23T18:45:48.306Z,17.57
2022-10-23T18:49:59.866Z,17.54
2022-10-23T18:54:13.869Z,17.51
2022-10-23T18:58:25.382Z,17.49
2022-10-23T19:02:38.002Z,17.43
2022-10-23T19:06:50.628Z,17.45
2022-10-23T19:11:02.848Z,17.44
2022-10-23T19:15:14.901Z,17.50
2022-10-23T19:19:31.532Z,17.56
2022-10-23T19:23:43.520Z,17.60
2022-10-23T19:27:56.815Z,17.64
2022-10-23T19:32:08.668Z,17.66
2022-10-23T19:36:23.538Z,17.70
2022-10-23T19:40:35.201Z,17.77
2022-10-23T19:44:46.681Z,17.73
2022-10-23T19:48:58.189Z,17.61
2022-10-23T19:53:09.859Z,17.46
2022-10-23T19:57:22.635Z,17.37
2022-10-23T20:01:34.534Z,17.37
2022-10-23T20:05:46.977Z,17.34
2022-10-23T20:09:58.703Z,17.36
2022-10-23T20:14:10.242Z,17.31
2022-10-23T20:18:21.705Z,17.34
2022-10-23T20:22:33.225Z,17.35
2022-10-23T20:26:48.125Z,17.30
2022-10-23T20:30:59.700Z,17.26
2022-10-23T20:35:11.168Z,17.19
2022-10-23T20:39:29.515Z,17.18
2022-10-23T20:43:40.997Z,17.21
2022-10-23T20:47:52.461Z,17.18
2022-10-23T20:52:04.143Z,17.22
2022-10-23T20:56:23.123Z,17.30
2022-10-23T21:00:34.666Z,17.26
2022-10-23T21:04:47.596Z,17.22
2022-10-23T21:09:01.877Z,17.07
2022-10-23T21:13:13.871Z,17.13
2022-10-23T21:17:25.539Z,17.07
2022-10-23T21:21:37.157Z,17.08
2022-10-23T21:25:48.818Z,17.07
2022-10-23T21:30:00.340Z,17.06
2022-10-23T21:34:12.138Z,17.01
2022-10-23T21:38:24.131Z,16.92
2022-10-23T21:42:35.709Z,16.82
2022-10-23T21:46:47.334Z,16.87
2022-10-23T21:51:00.180Z,16.90
2022-10-23T21:55:11.931Z,16.90
2022-10-23T21:59:27.888Z,16.91
2022-10-23T22:03:41.778Z,16.93
2022-10-23T22:07:53.354Z,16.70
2022-10-23T22:12:05.117Z,16.51
2022-10-23T22:16:16.991Z,16.43
2022-10-23T22:20:28.543Z,16.36
2022-10-23T22:24:40.074Z,16.27
2022-10-23T22:28:54.456Z,16.27
2022-10-23T22:33:06.013Z,16.24
2022-10-23T22:37:17.569Z,16.21
2022-10-23T22:41:29.211Z,16.17
2022-10-23T22:45:40.761Z,16.13
2022-10-23T22:49:52.332Z,16.11
2022-10-23T22:54:03.937Z,16.08
2022-10-23T22:58:15.482Z,16.02
2022-10-23T23:02:27.512Z,15.97
2022-10-23T23:06:39.318Z,15.93
2022-10-23T23:10:55.420Z,16.00
2022-10-23T23:15:07.482Z,16.01
2022-10-23T23:19:19.527Z,15.97
2022-10-23T23:23:31.900Z,16.00
2022-10-23T23:27:44.136Z,15.96
2022-10-23T23:31:55.800Z,15.85
2022-10-23T23:36:09.418Z,15.77
2022-10-23T23:40:21.011Z,15.69
2022-10-23T23:44:32.651Z,15.67
2022-10-23T23:48:47.900Z,15.54
2022-10-23T23:52:59.508Z,15.48
2022-10-23T23:57:12.058Z,15.44
